createdAt,value
2018-12-31T00:07:24.188Z,10.78
2018-12-31T00:12:27.757Z,12.93
2018-12-31T00:17:31.126Z,11.85
2018-12-31T00:22:34.686Z,11.10
2018-12-31T00:27:38.792Z,19.17
2018-12-31T00:32:42.260Z,24.87
2018-12-31T00:37:47.515Z,19.27
2018-12-31T00:42:50.990Z,21.48
2018-12-31T00:47:54.434Z,14.80
2018-12-31T00:52:58.349Z,13.40
2018-12-31T00:58:02.112Z,25.08
2018-12-31T01:03:05.649Z,12.43
2018-12-31T01:08:09.141Z,12.43
2018-12-31T01:13:12.691Z,13.75
2018-12-31T01:18:16.213Z,15.10
2018-12-31T01:23:19.724Z,9.60
2018-12-31T01:28:23.275Z,10.35
2018-12-31T01:33:27.722Z,9.63
2018-12-31T01:38:31.196Z,13.00
2018-12-31T01:43:34.687Z,17.10
2018-12-31T01:48:38.146Z,11.63
2018-12-31T01:53:41.581Z,13.10
2018-12-31T01:58:45.123Z,18.85
2018-12-31T02:03:49.145Z,19.30
2018-12-31T02:08:52.624Z,18.95
2018-12-31T02:13:55.956Z,26.00
2018-12-31T02:18:59.502Z,18.85
2018-12-31T02:24:03.060Z,10.45
2018-12-31T02:29:06.646Z,9.53
2018-12-31T02:34:10.123Z,14.23
2018-12-31T02:39:13.520Z,11.78
2018-12-31T02:44:17.194Z,13.15
2018-12-31T02:49:20.751Z,10.25
2018-12-31T02:54:24.195Z,9.93
2018-12-31T02:59:27.616Z,13.83
2018-12-31T03:04:31.125Z,13.05
2018-12-31T03:09:34.674Z,13.45
2018-12-31T03:14:37.988Z,10.00
2018-12-31T03:19:41.269Z,8.05
2018-12-31T03:24:44.679Z,9.58
2018-12-31T03:29:48.261Z,13.62
2018-12-31T03:34:51.919Z,10.25
2018-12-31T03:39:55.460Z,9.00
2018-12-31T03:44:58.828Z,11.15
2018-12-31T03:50:02.314Z,19.67
2018-12-31T03:55:05.928Z,18.57
2018-12-31T04:00:09.536Z,10.93
2018-12-31T04:05:13.295Z,9.73
2018-12-31T04:10:16.623Z,11.43
2018-12-31T04:15:20.001Z,17.65
2018-12-31T04:20:23.444Z,16.67
2018-12-31T04:25:26.790Z,10.10
2018-12-31T04:30:30.288Z,8.25
2018-12-31T04:35:33.553Z,8.48
2018-12-31T04:40:36.897Z,8.00
2018-12-31T04:45:40.285Z,11.03
2018-12-31T04:50:43.651Z,9.40
2018-12-31T04:55:46.993Z,10.50
2018-12-31T05:00:50.465Z,11.95
2018-12-31T05:05:53.816Z,12.47
2018-12-31T05:10:58.450Z,13.22
2018-12-31T05:16:01.745Z,14.15
2018-12-31T05:21:05.101Z,16.40
2018-12-31T05:26:08.447Z,24.27
2018-12-31T05:31:11.853Z,30.97
2018-12-31T05:36:15.298Z,35.83
2018-12-31T05:41:18.578Z,30.85
2018-12-31T05:46:22.037Z,20.95
2018-12-31T05:51:25.465Z,19.90
2018-12-31T05:56:28.651Z,26.50
2018-12-31T06:01:32.140Z,24.18
2018-12-31T06:06:35.516Z,21.70
2018-12-31T06:11:38.950Z,26.62
2018-12-31T06:16:42.374Z,15.98
2018-12-31T06:21:45.665Z,29.18
2018-12-31T06:26:49.020Z,14.35
2018-12-31T06:31:52.723Z,12.98
2018-12-31T06:36:56.331Z,19.12
2018-12-31T06:41:59.873Z,19.90
2018-12-31T06:47:05.274Z,10.53
2018-12-31T06:52:08.963Z,17.85
2018-12-31T06:57:13.647Z,21.85
2018-12-31T07:02:17.124Z,21.57
2018-12-31T07:07:20.732Z,23.18
2018-12-31T07:12:24.114Z,19.95
2018-12-31T07:17:27.668Z,15.08
2018-12-31T07:22:31.243Z,24.63
2018-12-31T07:27:34.891Z,26.82
2018-12-31T07:32:38.545Z,14.20
2018-12-31T07:37:42.392Z,43.63
2018-12-31T07:42:46.199Z,46.02
2018-12-31T07:47:52.118Z,40.65
2018-12-31T07:52:55.624Z,45.63
2018-12-31T07:58:00.371Z,38.67
2018-12-31T08:03:03.854Z,19.20
2018-12-31T08:08:07.283Z,11.35
2018-12-31T08:13:11.099Z,14.93
2018-12-31T08:18:14.674Z,17.42
2018-12-31T08:23:18.201Z,13.98
2018-12-31T08:28:21.560Z,21.10
2018-12-31T08:33:25.017Z,16.57
2018-12-31T08:38:28.485Z,20.02
2018-12-31T08:43:32.151Z,20.23
2018-12-31T08:48:37.344Z,26.30
2018-12-31T08:53:40.780Z,18.80
2018-12-31T08:58:44.504Z,15.15
2018-12-31T09:03:47.939Z,20.45
2018-12-31T09:08:51.468Z,19.15
2018-12-31T09:13:54.995Z,17.75
2018-12-31T09:18:58.285Z,24.02
2018-12-31T09:24:01.682Z,23.60
2018-12-31T09:29:04.999Z,29.00
2018-12-31T09:34:08.357Z,15.72
2018-12-31T09:39:11.834Z,26.00
2018-12-31T09:44:15.085Z,19.17
2018-12-31T09:49:19.540Z,20.88
2018-12-31T09:54:22.976Z,15.90
2018-12-31T09:59:26.253Z,14.85
2018-12-31T10:04:29.739Z,15.08
2018-12-31T10:09:33.214Z,14.45
2018-12-31T10:14:36.537Z,12.07
2018-12-31T10:19:39.941Z,13.18
2018-12-31T10:24:43.245Z,15.28
2018-12-31T10:29:47.182Z,13.80
2018-12-31T10:34:50.628Z,22.90
2018-12-31T10:39:53.990Z,21.30
2018-12-31T10:44:57.409Z,22.85
2018-12-31T10:50:01.682Z,21.95
2018-12-31T10:55:07.091Z,12.45
2018-12-31T11:00:10.595Z,16.27
2018-12-31T11:05:15.710Z,14.25
2018-12-31T11:10:19.615Z,21.75
2018-12-31T11:15:23.078Z,21.68
2018-12-31T11:20:26.412Z,20.60
2018-12-31T11:25:29.907Z,13.30
2018-12-31T11:30:33.275Z,10.32
2018-12-31T11:35:36.958Z,10.48
2018-12-31T11:40:40.292Z,13.00
2018-12-31T11:45:43.584Z,17.65
2018-12-31T11:50:51.669Z,14.78
2018-12-31T11:55:55.345Z,15.85
2018-12-31T12:00:58.638Z,16.48
2018-12-31T12:06:02.396Z,26.00
2018-12-31T12:11:05.822Z,20.77
2018-12-31T12:16:09.475Z,15.68
2018-12-31T12:21:12.830Z,15.78
2018-12-31T12:26:16.379Z,51.63
2018-12-31T12:31:19.916Z,37.25
2018-12-31T12:36:23.689Z,32.05
2018-12-31T12:41:27.091Z,25.17
2018-12-31T12:46:31.095Z,28.67
2018-12-31T12:51:34.506Z,21.90
2018-12-31T12:56:38.110Z,21.15
2018-12-31T13:01:41.532Z,23.10
2018-12-31T13:06:45.156Z,16.52
2018-12-31T13:11:48.499Z,20.40
2018-12-31T13:16:52.594Z,23.47
2018-12-31T13:21:56.100Z,31.42
2018-12-31T13:26:59.317Z,25.45
2018-12-31T13:32:03.674Z,20.08
2018-12-31T13:37:07.101Z,42.55
2018-12-31T13:42:10.577Z,20.52
2018-12-31T13:47:13.943Z,16.15
2018-12-31T13:52:18.217Z,19.32
2018-12-31T13:57:21.654Z,25.65
2018-12-31T14:02:24.995Z,23.60
2018-12-31T14:07:28.677Z,13.40
2018-12-31T14:12:32.196Z,24.63
2018-12-31T14:17:36.087Z,22.48
2018-12-31T14:22:39.588Z,19.15
2018-12-31T14:27:42.853Z,21.97
2018-12-31T14:32:46.296Z,24.40
2018-12-31T14:37:49.746Z,21.82
2018-12-31T14:42:53.215Z,39.65
2018-12-31T14:47:56.526Z,29.40
2018-12-31T14:52:59.961Z,36.73
2018-12-31T14:58:03.520Z,39.65
2018-12-31T15:03:07.079Z,43.78
2018-12-31T15:08:10.446Z,46.45
2018-12-31T15:13:14.216Z,61.90
2018-12-31T15:18:17.880Z,60.45
2018-12-31T15:26:56.022Z,69.30
2018-12-31T15:32:01.481Z,50.30
2018-12-31T15:37:05.615Z,55.58
2018-12-31T15:42:09.657Z,55.00
2018-12-31T15:47:13.946Z,68.85
2018-12-31T15:52:18.526Z,78.72
2018-12-31T15:57:23.568Z,36.30
2018-12-31T16:02:27.919Z,46.98
2018-12-31T16:07:32.148Z,41.77
2018-12-31T16:12:36.256Z,44.98
2018-12-31T16:17:41.278Z,86.92
2018-12-31T16:22:45.557Z,60.03
2018-12-31T16:27:50.646Z,34.75
2018-12-31T16:32:54.928Z,39.15
2018-12-31T16:37:59.169Z,41.28
2018-12-31T16:43:03.246Z,56.30
2018-12-31T16:48:07.763Z,45.38
2018-12-31T16:53:11.814Z,39.45
2018-12-31T16:58:16.393Z,37.50
2018-12-31T17:03:20.326Z,46.28
2018-12-31T17:08:24.936Z,25.02
2018-12-31T17:13:29.100Z,86.70
2018-12-31T17:18:33.060Z,56.05
2018-12-31T17:23:37.016Z,51.90
2018-12-31T17:28:41.236Z,57.45
2018-12-31T17:33:45.724Z,50.88
2018-12-31T17:38:49.618Z,76.42
2018-12-31T17:43:54.463Z,39.55
2018-12-31T17:48:58.403Z,62.67
2018-12-31T17:54:02.483Z,66.57
2018-12-31T17:59:07.381Z,188.90
2018-12-31T18:04:11.314Z,73.25
2018-12-31T18:09:15.226Z,61.20
2018-12-31T18:14:19.329Z,54.33
2018-12-31T18:19:23.553Z,58.13
2018-12-31T18:24:28.384Z,52.62
2018-12-31T18:29:32.383Z,78.80
2018-12-31T18:34:36.936Z,76.15
2018-12-31T18:39:40.995Z,72.05
2018-12-31T18:44:44.947Z,65.90
2018-12-31T18:49:49.124Z,42.15
2018-12-31T18:54:53.186Z,54.65
2018-12-31T18:59:57.214Z,53.95
2018-12-31T19:05:01.781Z,33.28
2018-12-31T19:10:05.723Z,35.65
2018-12-31T19:15:11.813Z,38.30
2018-12-31T19:20:16.186Z,24.43
2018-12-31T19:25:20.536Z,19.05
2018-12-31T19:30:24.451Z,45.10
2018-12-31T19:35:29.252Z,85.70
2018-12-31T19:40:33.923Z,55.45
2018-12-31T19:45:37.965Z,48.02
2018-12-31T19:50:42.064Z,53.42
2018-12-31T19:55:45.987Z,61.42
2018-12-31T20:00:50.115Z,33.83
2018-12-31T20:05:53.997Z,22.93
2018-12-31T20:10:58.679Z,25.70
2018-12-31T20:16:02.642Z,28.15
2018-12-31T20:21:06.611Z,45.95
2018-12-31T20:26:10.470Z,78.20
2018-12-31T20:31:14.765Z,31.80
2018-12-31T20:36:19.312Z,34.78
2018-12-31T20:41:23.535Z,97.85
2018-12-31T20:46:27.577Z,43.13
2018-12-31T20:51:31.988Z,34.45
2018-12-31T20:56:35.893Z,22.87
2018-12-31T21:01:39.797Z,35.65
2018-12-31T21:06:43.729Z,56.18
2018-12-31T21:11:47.753Z,35.10
2018-12-31T21:16:51.848Z,35.52
2018-12-31T21:21:55.832Z,32.13
2018-12-31T21:27:01.147Z,25.25
2018-12-31T21:32:05.134Z,29.77
2018-12-31T21:37:09.615Z,30.08
2018-12-31T21:42:13.643Z,14.07
2018-12-31T21:47:17.739Z,21.87
2018-12-31T21:52:21.573Z,26.55
2018-12-31T21:57:25.652Z,22.17
2018-12-31T22:02:29.437Z,33.88
2018-12-31T22:07:33.837Z,209.00
2018-12-31T22:12:37.699Z,89.13
2018-12-31T22:17:42.102Z,75.28
2018-12-31T22:22:46.172Z,91.32
2018-12-31T22:27:50.099Z,81.92
2018-12-31T22:32:54.088Z,49.10
2018-12-31T22:37:58.364Z,14.85
2018-12-31T22:43:02.560Z,62.15
2018-12-31T22:48:06.921Z,64.03
2018-12-31T22:53:11.011Z,20.08
2018-12-31T22:58:14.920Z,29.87
2018-12-31T23:03:18.821Z,15.93
2018-12-31T23:08:22.846Z,22.75
2018-12-31T23:13:30.350Z,13.78
2018-12-31T23:18:34.410Z,12.18
2018-12-31T23:23:38.657Z,24.40
2018-12-31T23:28:42.933Z,14.83
2018-12-31T23:33:46.958Z,19.80
2018-12-31T23:38:51.144Z,22.27
2018-12-31T23:43:55.057Z,16.67
2018-12-31T23:48:59.223Z,17.07
2018-12-31T23:54:03.175Z,15.13
2018-12-31T23:59:07.379Z,13.05
